Anabel, Missouri
Current Conditions -  °F | °C
As of 8:55 PM on Monday 26 Jan 2015 (Local Time) from KIRK Reporting Station
Few Clouds Few Clouds  
Wind Chill:   Ceiling: Unl
Heat Index:   Visibility: 10mi
Dew Point:   Wind: 10mph
Humidity: 76%   Direction: 320°NW
Pressure: 29.94"   Gusts: NA
Location:  39.75°N, 92.34°W
Report Text: KIRK 270255Z AUTO 32009KT 10SM FEW040 06/02 A2994 RMK AO2 SLP148 T00610022 53018
Loading
Personal Weather Stations






























Interactive Weather Map New forecast layout! Learn more

10-Day Weather Forecast

Advertisements
Track Severe Weather on mobile